createdAt,value
2016-12-27T00:00:21.937Z,1022.22
2016-12-27T00:01:22.589Z,1022.38
2016-12-27T00:02:23.248Z,1022.36
2016-12-27T00:03:23.916Z,1022.32
2016-12-27T00:04:24.610Z,1022.4
2016-12-27T00:05:25.275Z,1022.44
2016-12-27T00:06:25.939Z,1022.29
2016-12-27T00:07:26.600Z,1022.3
2016-12-27T00:08:27.259Z,1022.31
2016-12-27T00:09:27.921Z,1022.3
2016-12-27T00:10:28.577Z,1022.37
2016-12-27T00:11:29.250Z,1022.3
2016-12-27T00:12:29.927Z,1022.28
2016-12-27T00:13:30.588Z,1022.34
2016-12-27T00:14:31.274Z,1022.26
2016-12-27T00:15:31.947Z,1022.34
2016-12-27T00:16:32.614Z,1022.27
2016-12-27T00:17:33.290Z,1022.31
2016-12-27T00:18:33.961Z,1022.21
2016-12-27T00:19:34.622Z,1022.28
2016-12-27T00:20:35.298Z,1022.28
2016-12-27T00:21:35.973Z,1022.28
2016-12-27T00:22:36.636Z,1022.25
2016-12-27T00:23:37.315Z,1022.19
2016-12-27T00:24:37.992Z,1022.24
2016-12-27T00:25:38.667Z,1022.24
2016-12-27T00:26:39.342Z,1022.23
2016-12-27T00:27:40.035Z,1022.16
2016-12-27T00:28:40.691Z,1022.28
2016-12-27T00:29:41.364Z,1022.29
2016-12-27T00:30:42.038Z,1022.3
2016-12-27T00:31:42.690Z,1022.3
2016-12-27T00:32:43.347Z,1022.34
2016-12-27T00:33:44.010Z,1022.29
2016-12-27T00:34:44.676Z,1022.35
2016-12-27T00:35:45.329Z,1022.31
2016-12-27T00:36:46.001Z,1022.31
2016-12-27T00:37:46.677Z,1022.3
2016-12-27T00:38:47.327Z,1022.26
2016-12-27T00:39:47.997Z,1022.3
2016-12-27T00:40:48.660Z,1022.28
2016-12-27T00:41:49.324Z,1022.3
2016-12-27T00:42:49.976Z,1022.3
2016-12-27T00:43:50.638Z,1022.31
2016-12-27T00:44:51.284Z,1022.21
2016-12-27T00:45:51.958Z,1022.25
2016-12-27T00:46:52.622Z,1022.27
2016-12-27T00:47:53.295Z,1022.32
2016-12-27T00:48:53.971Z,1022.35
2016-12-27T00:49:54.645Z,1022.35
2016-12-27T00:50:55.309Z,1022.29
2016-12-27T00:51:55.972Z,1022.39
2016-12-27T00:52:56.639Z,1022.32
2016-12-27T00:53:57.312Z,1022.35
2016-12-27T00:54:57.968Z,1022.37
2016-12-27T00:55:58.656Z,1022.26
2016-12-27T00:56:59.312Z,1022.36
2016-12-27T00:57:59.975Z,1022.32
2016-12-27T00:59:00.626Z,1022.38
2016-12-27T01:00:01.332Z,1022.39
2016-12-27T01:01:02.002Z,1022.42
2016-12-27T01:02:02.678Z,1022.48
2016-12-27T01:03:03.349Z,1022.5
2016-12-27T01:04:04.024Z,1022.53
2016-12-27T01:05:04.688Z,1022.47
2016-12-27T01:06:05.353Z,1022.55
2016-12-27T01:07:06.013Z,1022.49
2016-12-27T01:08:06.664Z,1022.45
2016-12-27T01:09:07.341Z,1022.52
2016-12-27T01:10:08.003Z,1022.52
2016-12-27T01:11:08.668Z,1022.61
2016-12-27T01:12:09.357Z,1022.62
2016-12-27T01:13:10.029Z,1022.62
2016-12-27T01:14:10.712Z,1022.65
2016-12-27T01:15:11.361Z,1022.55
2016-12-27T01:16:12.039Z,1022.67
2016-12-27T01:17:12.720Z,1022.68
2016-12-27T01:18:13.386Z,1022.72
2016-12-27T01:19:14.046Z,1022.69
2016-12-27T01:20:14.718Z,1022.72
2016-12-27T01:21:15.369Z,1022.82
2016-12-27T01:22:16.037Z,1022.84
2016-12-27T01:23:16.702Z,1022.8
2016-12-27T01:24:17.376Z,1022.86
2016-12-27T01:25:18.057Z,1022.9
2016-12-27T01:26:18.714Z,1022.92
2016-12-27T01:27:19.375Z,1022.9
2016-12-27T01:28:20.024Z,1022.99
2016-12-27T01:29:20.676Z,1022.93
2016-12-27T01:30:21.335Z,1022.94
2016-12-27T01:31:22.013Z,1022.85
2016-12-27T01:32:22.679Z,1022.93
2016-12-27T01:33:23.339Z,1022.9
2016-12-27T01:34:24.019Z,1022.94
2016-12-27T01:35:24.688Z,1022.87
2016-12-27T01:36:25.346Z,1022.95
2016-12-27T01:37:25.994Z,1022.95
2016-12-27T01:38:26.672Z,1022.98
2016-12-27T01:39:27.338Z,1022.98
2016-12-27T01:40:28.013Z,1023.02
2016-12-27T01:41:28.701Z,1022.96
2016-12-27T01:42:29.360Z,1022.99
2016-12-27T01:43:30.010Z,1023.02
2016-12-27T01:44:30.659Z,1022.97
2016-12-27T01:45:31.320Z,1023.07
2016-12-27T01:46:31.992Z,1023.09
2016-12-27T01:47:32.645Z,1023.16
2016-12-27T01:48:33.316Z,1023.16
2016-12-27T01:49:33.988Z,1023.08
2016-12-27T01:50:34.639Z,1023.02
2016-12-27T01:51:35.313Z,1022.99
2016-12-27T01:52:35.976Z,1022.93
2016-12-27T01:53:36.632Z,1022.96
2016-12-27T01:54:37.315Z,1023.02
2016-12-27T01:55:37.972Z,1022.97
2016-12-27T01:56:38.638Z,1022.95
2016-12-27T01:57:39.301Z,1023.04
2016-12-27T01:58:39.965Z,1022.98
2016-12-27T01:59:40.627Z,1023.1
2016-12-27T02:00:41.290Z,1023.11
2016-12-27T02:01:41.951Z,1023
2016-12-27T02:02:42.633Z,1023.02
2016-12-27T02:03:43.286Z,1023.21
2016-12-27T02:04:43.943Z,1023.17
2016-12-27T02:05:44.607Z,1023.17
2016-12-27T02:06:45.291Z,1023.16
2016-12-27T02:07:45.940Z,1023.14
2016-12-27T02:08:49.332Z,1023.24
2016-12-27T02:09:49.999Z,1023.17
2016-12-27T02:10:50.644Z,1023.29
2016-12-27T02:11:51.306Z,1023.28
2016-12-27T02:12:51.970Z,1023.37
2016-12-27T02:13:52.657Z,1023.46
2016-12-27T02:14:53.322Z,1023.24
2016-12-27T02:15:53.987Z,1023.23
2016-12-27T02:16:54.661Z,1023.27
2016-12-27T02:17:55.331Z,1023.48
2016-12-27T02:18:56.002Z,1023.45
2016-12-27T02:19:56.664Z,1023.49
2016-12-27T02:20:57.322Z,1023.5
2016-12-27T02:21:57.971Z,1023.47
2016-12-27T02:22:58.644Z,1023.52
2016-12-27T02:23:59.294Z,1023.49
2016-12-27T02:24:59.952Z,1023.42
2016-12-27T02:26:00.611Z,1023.56
2016-12-27T02:27:01.281Z,1023.58
2016-12-27T02:28:01.958Z,1023.79
2016-12-27T02:29:02.636Z,1023.86
2016-12-27T02:30:03.300Z,1023.86
2016-12-27T02:31:03.982Z,1023.86
2016-12-27T02:32:04.655Z,1023.72
2016-12-27T02:33:05.314Z,1023.63
2016-12-27T02:34:05.995Z,1023.55
2016-12-27T02:35:06.662Z,1023.58
2016-12-27T02:36:07.349Z,1023.68
2016-12-27T02:37:08.008Z,1023.55
2016-12-27T02:38:08.670Z,1023.58
2016-12-27T02:39:09.353Z,1023.64
2016-12-27T02:40:10.012Z,1023.59
2016-12-27T02:41:10.669Z,1023.63
2016-12-27T02:42:11.337Z,1023.56
2016-12-27T02:43:11.994Z,1023.44
2016-12-27T02:44:12.656Z,1023.53
2016-12-27T02:45:13.327Z,1023.48
2016-12-27T02:46:13.983Z,1023.4
2016-12-27T02:47:14.658Z,1023.41
2016-12-27T02:48:15.312Z,1023.41
2016-12-27T02:49:15.984Z,1023.44
2016-12-27T02:50:16.659Z,1023.4
2016-12-27T02:51:17.345Z,1023.37
2016-12-27T02:52:18.034Z,1023.39
2016-12-27T02:53:18.698Z,1023.47
2016-12-27T02:54:19.352Z,1023.5
2016-12-27T02:55:20.009Z,1023.41
2016-12-27T02:56:20.687Z,1023.52
2016-12-27T02:57:21.358Z,1023.55
2016-12-27T02:58:22.033Z,1023.51
2016-12-27T02:59:22.710Z,1023.53
2016-12-27T03:00:23.385Z,1023.67
2016-12-27T03:01:24.050Z,1023.7
2016-12-27T03:02:24.710Z,1023.69
2016-12-27T03:03:25.385Z,1023.6
2016-12-27T03:04:26.070Z,1023.61
2016-12-27T03:05:26.730Z,1023.66
2016-12-27T03:06:27.394Z,1023.65
2016-12-27T03:07:28.060Z,1023.67
2016-12-27T03:08:28.709Z,1023.68
2016-12-27T03:09:29.377Z,1023.56
2016-12-27T03:10:30.080Z,1023.61
2016-12-27T03:11:30.754Z,1023.59
2016-12-27T03:12:31.412Z,1023.65
2016-12-27T03:13:32.067Z,1023.55
2016-12-27T03:14:32.727Z,1023.63
2016-12-27T03:15:33.411Z,1023.6
2016-12-27T03:16:34.080Z,1023.57
2016-12-27T03:17:34.756Z,1023.6
2016-12-27T03:18:35.417Z,1023.58
2016-12-27T03:19:36.082Z,1023.46
2016-12-27T03:20:36.740Z,1023.47
2016-12-27T03:21:37.386Z,1023.46
2016-12-27T03:22:38.066Z,1023.46
2016-12-27T03:23:38.731Z,1023.41
2016-12-27T03:24:39.388Z,1023.53
2016-12-27T03:25:40.039Z,1023.46
2016-12-27T03:26:40.708Z,1023.44
2016-12-27T03:27:41.366Z,1023.6
2016-12-27T03:28:42.051Z,1023.61
2016-12-27T03:29:42.709Z,1023.57
2016-12-27T03:30:43.382Z,1023.57
2016-12-27T03:31:44.083Z,1023.59
2016-12-27T03:32:44.740Z,1023.52
2016-12-27T03:33:45.418Z,1023.58
2016-12-27T03:34:46.084Z,1023.48
2016-12-27T03:35:46.757Z,1023.44
2016-12-27T03:36:47.453Z,1023.51
2016-12-27T03:37:48.116Z,1023.59
2016-12-27T03:38:48.773Z,1023.54
2016-12-27T03:39:49.433Z,1023.57
2016-12-27T03:40:50.096Z,1023.57
2016-12-27T03:41:50.753Z,1023.52
2016-12-27T03:42:51.412Z,1023.53
2016-12-27T03:43:52.076Z,1023.55
2016-12-27T03:44:52.765Z,1023.57
2016-12-27T03:45:53.428Z,1023.6
2016-12-27T03:46:54.105Z,1023.68
2016-12-27T03:47:54.772Z,1023.81
2016-12-27T03:48:55.439Z,1023.74
2016-12-27T03:49:56.126Z,1023.81
2016-12-27T03:50:56.776Z,1023.83
2016-12-27T03:51:57.453Z,1023.99
2016-12-27T03:52:58.111Z,1023.91
2016-12-27T03:53:58.763Z,1023.84
2016-12-27T03:54:59.424Z,1023.89
2016-12-27T03:56:00.094Z,1023.78
2016-12-27T03:57:00.762Z,1023.77
2016-12-27T03:58:01.418Z,1023.9
2016-12-27T03:59:02.072Z,1023.74
2016-12-27T04:00:02.760Z,1023.82
2016-12-27T04:01:03.428Z,1023.92
2016-12-27T04:02:04.092Z,1023.8
2016-12-27T04:03:04.744Z,1023.84
2016-12-27T04:04:05.410Z,1023.73
2016-12-27T04:05:06.092Z,1023.84
2016-12-27T04:06:06.757Z,1023.92
2016-12-27T04:07:07.428Z,1023.86
2016-12-27T04:08:08.095Z,1023.89
2016-12-27T04:09:08.753Z,1023.82
2016-12-27T04:10:09.424Z,1023.93
2016-12-27T04:11:10.103Z,1023.93
2016-12-27T04:12:10.763Z,1024.04
2016-12-27T04:13:11.443Z,1024.07
2016-12-27T04:14:12.118Z,1024.03
2016-12-27T04:15:12.786Z,1024.12
2016-12-27T04:16:13.452Z,1024.1
2016-12-27T04:17:14.102Z,1024.11
2016-12-27T04:18:14.779Z,1024.11
2016-12-27T04:19:15.441Z,1024.08
2016-12-27T04:20:16.100Z,1024.19
2016-12-27T04:21:16.767Z,1024.07
2016-12-27T04:22:17.430Z,1024.15
2016-12-27T04:23:18.121Z,1024.15
2016-12-27T04:24:18.777Z,1024.07
2016-12-27T04:25:19.430Z,1024.01
2016-12-27T04:26:20.076Z,1024.06
2016-12-27T04:27:20.744Z,1024.15
2016-12-27T04:28:21.407Z,1024.15
2016-12-27T04:29:22.098Z,1024.14
2016-12-27T04:30:22.770Z,1024.12
2016-12-27T04:31:23.437Z,1024.11
2016-12-27T04:32:24.115Z,1024.27
2016-12-27T04:33:24.782Z,1024.28
2016-12-27T04:34:25.459Z,1024.35
2016-12-27T04:35:26.118Z,1024.34
2016-12-27T04:36:26.795Z,1024.17
2016-12-27T04:37:27.455Z,1024.51
2016-12-27T04:38:28.117Z,1024.78
2016-12-27T04:39:28.774Z,1024.74
2016-12-27T04:40:29.444Z,1024.71
2016-12-27T04:41:30.099Z,1024.73
2016-12-27T04:42:30.768Z,1024.58
2016-12-27T04:43:31.437Z,1024.8
2016-12-27T04:44:32.097Z,1024.78
2016-12-27T04:45:32.760Z,1024.83
2016-12-27T04:46:33.421Z,1024.78
2016-12-27T04:47:34.102Z,1024.86
2016-12-27T04:48:34.770Z,1024.87
2016-12-27T04:49:35.432Z,1024.85
2016-12-27T04:50:36.119Z,1024.98
2016-12-27T04:51:36.791Z,1024.87
2016-12-27T04:52:37.465Z,1025
2016-12-27T04:53:38.151Z,1024.94
2016-12-27T04:54:38.804Z,1024.91
2016-12-27T04:55:39.468Z,1024.89
2016-12-27T04:56:40.136Z,1024.98
2016-12-27T04:57:40.817Z,1025.08
2016-12-27T04:58:41.480Z,1025.05
2016-12-27T04:59:42.140Z,1025.09
2016-12-27T05:00:42.807Z,1025.09
2016-12-27T05:01:43.471Z,1025.08
2016-12-27T05:02:44.145Z,1025.13
2016-12-27T05:03:44.815Z,1025.15
2016-12-27T05:04:45.476Z,1025.13
2016-12-27T05:05:46.133Z,1025.03
2016-12-27T05:06:46.788Z,1025.06
2016-12-27T05:07:47.455Z,1025.09
2016-12-27T05:08:48.122Z,1025.07
2016-12-27T05:09:48.795Z,1025.01
2016-12-27T05:10:49.469Z,1024.96
2016-12-27T05:11:50.129Z,1025.05
2016-12-27T05:12:50.787Z,1025.04
2016-12-27T05:13:51.447Z,1025.07
2016-12-27T05:14:52.110Z,1025.01
2016-12-27T05:15:52.785Z,1025.01
2016-12-27T05:16:53.433Z,1025.06
2016-12-27T05:17:54.085Z,1025.14
2016-12-27T05:18:54.749Z,1025.14
2016-12-27T05:19:55.411Z,1025.13
2016-12-27T05:20:56.055Z,1025.17
2016-12-27T05:21:56.710Z,1025.2
2016-12-27T05:22:57.365Z,1025.2
2016-12-27T05:23:58.040Z,1025.18
2016-12-27T05:24:58.703Z,1025.09
2016-12-27T05:25:59.368Z,1025.19
2016-12-27T05:27:00.024Z,1025.16
2016-12-27T05:28:00.695Z,1025.23
2016-12-27T05:29:01.357Z,1025.32
2016-12-27T05:30:02.011Z,1025.31
2016-12-27T05:31:02.666Z,1025.32
2016-12-27T05:32:03.328Z,1025.38
2016-12-27T05:33:03.992Z,1025.33
2016-12-27T05:34:04.659Z,1025.43
2016-12-27T05:35:05.304Z,1025.46
2016-12-27T05:36:05.973Z,1025.58
2016-12-27T05:37:06.648Z,1025.54
2016-12-27T05:38:07.331Z,1025.61
2016-12-27T05:39:07.994Z,1025.62
2016-12-27T05:40:08.660Z,1025.67
2016-12-27T05:41:09.338Z,1025.71
2016-12-27T05:42:09.994Z,1025.72
2016-12-27T05:43:10.657Z,1025.74
2016-12-27T05:44:11.314Z,1025.8
2016-12-27T05:45:11.985Z,1025.82
2016-12-27T05:46:12.654Z,1025.83
2016-12-27T05:47:13.315Z,1025.88
2016-12-27T05:48:13.981Z,1025.92
2016-12-27T05:49:14.643Z,1025.79
2016-12-27T05:50:15.298Z,1025.66
2016-12-27T05:51:15.948Z,1025.96
2016-12-27T05:52:16.622Z,1026.01
2016-12-27T05:53:17.290Z,1025.85
2016-12-27T05:54:17.954Z,1025.93
2016-12-27T05:55:18.616Z,1025.9
2016-12-27T05:56:19.279Z,1025.96
2016-12-27T05:57:19.949Z,1025.92
2016-12-27T05:58:20.617Z,1025.94
2016-12-27T05:59:21.303Z,1025.89
2016-12-27T06:00:21.961Z,1025.94
2016-12-27T06:01:22.629Z,1025.93
2016-12-27T06:02:23.290Z,1025.97
2016-12-27T06:03:23.950Z,1025.84
2016-12-27T06:04:24.622Z,1025.95
2016-12-27T06:05:25.295Z,1025.98
2016-12-27T06:06:25.946Z,1025.99
2016-12-27T06:07:26.631Z,1026.13
2016-12-27T06:08:27.277Z,1026.08
2016-12-27T06:09:27.957Z,1026.15
2016-12-27T06:10:28.636Z,1026.18
2016-12-27T06:11:29.308Z,1026.07
2016-12-27T06:12:29.971Z,1026.12
2016-12-27T06:13:30.644Z,1026.11
2016-12-27T06:14:31.295Z,1026.09
2016-12-27T06:15:31.951Z,1026.09
2016-12-27T06:16:32.621Z,1026.12
2016-12-27T06:17:33.296Z,1026.25
2016-12-27T06:18:33.956Z,1026.11
2016-12-27T06:19:34.612Z,1026.08
2016-12-27T06:20:35.280Z,1026.18
2016-12-27T06:21:35.935Z,1026.18
2016-12-27T06:22:36.631Z,1026.31
2016-12-27T06:23:37.301Z,1026.22
2016-12-27T06:24:37.957Z,1026.26
2016-12-27T06:25:38.607Z,1026.29
2016-12-27T06:26:39.283Z,1026.28
2016-12-27T06:27:39.957Z,1026.32
2016-12-27T06:28:40.612Z,1026.36
2016-12-27T06:29:41.300Z,1026.44
2016-12-27T06:30:41.974Z,1026.28
2016-12-27T06:31:42.646Z,1026.38
2016-12-27T06:32:43.302Z,1026.43
2016-12-27T06:33:43.961Z,1026.42
2016-12-27T06:34:44.642Z,1026.43
2016-12-27T06:35:45.416Z,1026.41
2016-12-27T06:36:46.063Z,1026.44
2016-12-27T06:37:46.707Z,1026.49
2016-12-27T06:38:47.380Z,1026.51
2016-12-27T06:39:48.069Z,1026.5
2016-12-27T06:40:48.746Z,1026.48
2016-12-27T06:41:49.419Z,1026.57
2016-12-27T06:42:50.075Z,1026.59
2016-12-27T06:43:50.738Z,1026.56
2016-12-27T06:44:51.409Z,1026.6
2016-12-27T06:45:52.069Z,1026.68
2016-12-27T06:46:52.734Z,1026.72
2016-12-27T06:47:53.387Z,1026.65
2016-12-27T06:48:54.040Z,1026.75
2016-12-27T06:49:54.707Z,1026.85
2016-12-27T06:50:55.358Z,1026.74
2016-12-27T06:51:56.027Z,1026.8
2016-12-27T06:52:56.695Z,1026.81
2016-12-27T06:53:57.343Z,1026.82
2016-12-27T06:54:58.003Z,1026.82
2016-12-27T06:55:58.657Z,1026.88
2016-12-27T06:56:59.340Z,1026.87
2016-12-27T06:58:00.016Z,1026.88
2016-12-27T06:59:00.681Z,1026.84
2016-12-27T07:00:01.356Z,1026.97
2016-12-27T07:01:02.032Z,1026.97
2016-12-27T07:02:02.697Z,1026.89
2016-12-27T07:03:03.367Z,1026.99
2016-12-27T07:04:04.047Z,1026.94
2016-12-27T07:05:04.700Z,1026.94
2016-12-27T07:06:05.347Z,1027.01
2016-12-27T07:07:06.006Z,1026.98
2016-12-27T07:08:06.669Z,1026.95
2016-12-27T07:09:07.369Z,1026.89
2016-12-27T07:10:08.052Z,1026.96
2016-12-27T07:11:08.708Z,1026.89
2016-12-27T07:12:09.370Z,1026.82
2016-12-27T07:13:10.039Z,1026.9
2016-12-27T07:14:10.703Z,1026.98
2016-12-27T07:15:11.375Z,1026.86
2016-12-27T07:16:12.002Z,1026.81
2016-12-27T07:17:12.681Z,1026.84
2016-12-27T07:18:13.347Z,1026.96
2016-12-27T07:19:14.021Z,1026.9
2016-12-27T07:20:14.691Z,1026.99
2016-12-27T07:21:15.366Z,1026.93
2016-12-27T07:22:16.029Z,1026.94
2016-12-27T07:23:16.703Z,1027.12
2016-12-27T07:24:17.360Z,1027.15
2016-12-27T07:25:18.060Z,1027.25
2016-12-27T07:26:18.717Z,1027.13
2016-12-27T07:27:19.414Z,1027.01
2016-12-27T07:28:20.075Z,1027.23
2016-12-27T07:29:20.738Z,1027.2
2016-12-27T07:30:21.407Z,1027.26
2016-12-27T07:31:22.135Z,1027.14
2016-12-27T07:32:22.814Z,1027.15
2016-12-27T07:33:23.483Z,1027.14
2016-12-27T07:34:24.139Z,1027.2
2016-12-27T07:35:24.795Z,1027.3
2016-12-27T07:36:25.456Z,1027.47
2016-12-27T07:37:26.120Z,1027.45
2016-12-27T07:38:26.792Z,1027.47
2016-12-27T07:39:27.502Z,1027.57
2016-12-27T07:40:28.156Z,1027.65
2016-12-27T07:41:28.818Z,1027.67
2016-12-27T07:42:29.497Z,1027.67
2016-12-27T07:43:30.147Z,1027.69
2016-12-27T07:44:30.836Z,1027.62
2016-12-27T07:45:31.508Z,1027.8
2016-12-27T07:46:32.174Z,1027.7
2016-12-27T07:47:32.839Z,1027.78
2016-12-27T07:48:33.518Z,1027.78
2016-12-27T07:49:34.192Z,1027.83
2016-12-27T07:50:34.868Z,1027.6
2016-12-27T07:51:35.530Z,1027.71
2016-12-27T07:52:36.202Z,1027.62
2016-12-27T07:53:36.866Z,1027.6
2016-12-27T07:54:37.529Z,1027.62
2016-12-27T07:55:38.192Z,1027.55
2016-12-27T07:56:38.858Z,1027.66
2016-12-27T07:57:39.563Z,1027.63
2016-12-27T07:58:40.208Z,1027.63
2016-12-27T07:59:40.869Z,1027.68
2016-12-27T08:00:41.536Z,1027.69
2016-12-27T08:01:42.207Z,1027.67
2016-12-27T08:02:42.863Z,1027.64
2016-12-27T08:03:43.519Z,1027.76
2016-12-27T08:04:44.179Z,1027.66
2016-12-27T08:05:44.845Z,1027.68
2016-12-27T08:06:45.511Z,1027.83
2016-12-27T08:07:46.310Z,1027.9
2016-12-27T08:08:46.978Z,1027.75
2016-12-27T08:09:47.668Z,1027.91
2016-12-27T08:10:48.334Z,1028.03
2016-12-27T08:11:48.992Z,1027.91
2016-12-27T08:12:49.655Z,1028.08
2016-12-27T08:13:50.305Z,1027.98
2016-12-27T08:14:50.968Z,1028
2016-12-27T08:15:51.640Z,1027.95
2016-12-27T08:16:52.315Z,1028.3
2016-12-27T08:17:52.973Z,1028.06
2016-12-27T08:18:53.658Z,1028.2
2016-12-27T08:19:54.310Z,1028.03
2016-12-27T08:20:55.013Z,1028.11
2016-12-27T08:21:55.708Z,1028.15
2016-12-27T08:22:56.379Z,1028.32
2016-12-27T08:23:57.049Z,1028.31
2016-12-27T08:24:57.743Z,1028.38
2016-12-27T08:25:58.402Z,1028.29
2016-12-27T08:26:59.135Z,1028.43
2016-12-27T08:27:59.798Z,1028.43
2016-12-27T08:29:00.474Z,1028.5
2016-12-27T08:30:01.143Z,1028.59
2016-12-27T08:31:01.799Z,1028.6
2016-12-27T08:32:02.459Z,1028.7
2016-12-27T08:33:03.120Z,1028.73
2016-12-27T08:34:03.779Z,1028.78
2016-12-27T08:35:04.429Z,1028.78
2016-12-27T08:36:05.094Z,1028.82
2016-12-27T08:37:05.768Z,1028.86
2016-12-27T08:38:06.427Z,1028.86
2016-12-27T08:39:07.121Z,1028.81
2016-12-27T08:40:07.783Z,1028.83
2016-12-27T08:41:08.447Z,1028.77
2016-12-27T08:42:09.114Z,1028.82
2016-12-27T08:43:09.777Z,1028.79
2016-12-27T08:44:10.492Z,1028.79
2016-12-27T08:45:11.145Z,1028.79
2016-12-27T08:46:11.838Z,1028.75
2016-12-27T08:47:12.515Z,1028.82
2016-12-27T08:48:13.192Z,1028.86
2016-12-27T08:49:13.856Z,1028.89
2016-12-27T08:50:14.539Z,1028.83
2016-12-27T08:51:15.206Z,1028.76
2016-12-27T08:52:15.877Z,1029.03
2016-12-27T08:53:16.550Z,1029.11
2016-12-27T08:54:17.235Z,1029.07
2016-12-27T08:55:17.889Z,1029.12
2016-12-27T08:56:18.551Z,1029.12
2016-12-27T08:57:19.246Z,1029.06
2016-12-27T08:58:19.956Z,1029.03
2016-12-27T08:59:21.265Z,1029.05
2016-12-27T09:00:21.921Z,1028.96
2016-12-27T09:01:22.595Z,1029.1
2016-12-27T09:02:23.274Z,1029.05
2016-12-27T09:03:23.984Z,1029.04
2016-12-27T09:04:24.620Z,1029.11
2016-12-27T09:05:25.287Z,1029.16
2016-12-27T09:06:25.954Z,1029.22
2016-12-27T09:07:26.615Z,1029.12
2016-12-27T09:08:27.291Z,1029.17
2016-12-27T09:09:27.959Z,1029.11
2016-12-27T09:10:28.623Z,1029.22
2016-12-27T09:11:29.287Z,1029.11
2016-12-27T09:12:30.009Z,1029.22
2016-12-27T09:13:30.680Z,1029.18
2016-12-27T09:14:31.332Z,1029.12
2016-12-27T09:15:31.997Z,1029.19
2016-12-27T09:16:32.655Z,1029.21
2016-12-27T09:17:33.323Z,1029.2
2016-12-27T09:18:33.977Z,1029.44
2016-12-27T09:19:34.648Z,1029.34
2016-12-27T09:20:35.323Z,1029.23
2016-12-27T09:21:35.994Z,1029.27
2016-12-27T09:22:36.668Z,1029.27
2016-12-27T09:23:37.336Z,1029.2
2016-12-27T09:24:38.014Z,1029.36
2016-12-27T09:25:38.672Z,1029.25
2016-12-27T09:26:39.341Z,1029.36
2016-12-27T09:27:40.029Z,1029.28
2016-12-27T09:28:40.682Z,1029.32
2016-12-27T09:29:41.366Z,1029.42
2016-12-27T09:30:42.040Z,1029.37
2016-12-27T09:31:42.706Z,1029.51
2016-12-27T09:32:43.384Z,1029.49
2016-12-27T09:33:44.072Z,1029.53
2016-12-27T09:34:44.732Z,1029.44
2016-12-27T09:35:45.508Z,1029.6
2016-12-27T09:36:46.186Z,1029.53
2016-12-27T09:37:46.877Z,1029.47
2016-12-27T09:38:47.671Z,1029.56
2016-12-27T09:39:48.422Z,1029.61
2016-12-27T09:40:49.164Z,1029.75
2016-12-27T09:41:49.898Z,1029.75
2016-12-27T09:42:50.711Z,1029.6
2016-12-27T09:43:51.378Z,1029.63
2016-12-27T09:44:52.057Z,1029.76
2016-12-27T09:45:52.806Z,1029.73
2016-12-27T09:46:53.514Z,1029.58
2016-12-27T09:47:54.221Z,1029.66
2016-12-27T09:48:54.933Z,1029.88
2016-12-27T09:49:55.717Z,1029.64
2016-12-27T09:50:56.418Z,1029.66
2016-12-27T09:51:57.188Z,1029.69
2016-12-27T09:52:57.898Z,1029.66
2016-12-27T09:53:58.654Z,1029.69
2016-12-27T09:54:59.338Z,1029.85
2016-12-27T09:56:00.011Z,1029.83
2016-12-27T09:57:00.690Z,1029.78
2016-12-27T09:58:01.359Z,1029.87
2016-12-27T09:59:02.013Z,1029.92
2016-12-27T10:00:02.667Z,1029.93
2016-12-27T10:01:03.342Z,1029.9
2016-12-27T10:02:04.061Z,1029.96
2016-12-27T10:03:04.753Z,1030
2016-12-27T10:04:05.474Z,1030.09
2016-12-27T10:05:06.129Z,1030.01
2016-12-27T10:06:06.783Z,1030.14
2016-12-27T10:07:07.447Z,1030
2016-12-27T10:08:08.111Z,1030.05
2016-12-27T10:09:08.794Z,1030.13
2016-12-27T10:10:09.512Z,1030.17
2016-12-27T10:11:10.310Z,1030.17
2016-12-27T10:12:11.012Z,1030.14
2016-12-27T10:13:11.690Z,1030.07
2016-12-27T10:14:12.388Z,1030.21
2016-12-27T10:15:13.086Z,1030.19
2016-12-27T10:16:13.774Z,1030.19
2016-12-27T10:17:14.638Z,1030.31
2016-12-27T10:18:15.428Z,1030.27
2016-12-27T10:19:16.120Z,1030.21
2016-12-27T10:20:16.804Z,1030.24
2016-12-27T10:21:17.492Z,1030.28
2016-12-27T10:22:18.272Z,1030.29
2016-12-27T10:23:18.953Z,1030.38
2016-12-27T10:24:19.613Z,1030.26
2016-12-27T10:25:20.278Z,1030.37
2016-12-27T10:26:20.926Z,1030.31
2016-12-27T10:27:21.599Z,1030.36
2016-12-27T10:28:22.269Z,1030.51
2016-12-27T10:29:22.996Z,1030.4
2016-12-27T10:30:23.689Z,1030.32
2016-12-27T10:31:24.502Z,1030.38
2016-12-27T10:32:25.262Z,1030.51
2016-12-27T10:33:25.996Z,1030.36
2016-12-27T10:34:26.656Z,1030.5
2016-12-27T10:35:27.331Z,1030.5
2016-12-27T10:36:28.005Z,1030.49
2016-12-27T10:37:28.663Z,1030.54
2016-12-27T10:38:29.333Z,1030.48
2016-12-27T10:39:30.016Z,1030.7
2016-12-27T10:40:30.693Z,1030.58
2016-12-27T10:41:31.361Z,1030.65
2016-12-27T10:42:32.034Z,1030.81
2016-12-27T10:43:32.704Z,1030.65
2016-12-27T10:44:33.380Z,1030.69
2016-12-27T10:45:34.051Z,1030.86
2016-12-27T10:46:34.721Z,1030.77
2016-12-27T10:47:35.397Z,1030.92
2016-12-27T10:48:36.067Z,1030.83
2016-12-27T10:49:36.740Z,1030.89
2016-12-27T10:50:37.451Z,1030.86
2016-12-27T10:51:38.125Z,1030.88
2016-12-27T10:52:38.787Z,1030.91
2016-12-27T10:53:39.440Z,1031.01
2016-12-27T10:54:40.103Z,1030.95
2016-12-27T10:55:40.767Z,1030.8
2016-12-27T10:56:41.433Z,1030.91
2016-12-27T10:57:42.104Z,1030.92
2016-12-27T10:58:43.023Z,1030.87
2016-12-27T10:59:43.671Z,1031.05
2016-12-27T11:00:44.325Z,1031.07
2016-12-27T11:01:44.988Z,1031.03
2016-12-27T11:02:45.649Z,1031.08
2016-12-27T11:03:46.335Z,1031.19
2016-12-27T11:04:47.033Z,1031.27
2016-12-27T11:05:47.732Z,1031.24
2016-12-27T11:06:48.400Z,1031.25
2016-12-27T11:07:49.101Z,1031.26
2016-12-27T11:08:49.767Z,1031.26
2016-12-27T11:09:50.463Z,1031.39
2016-12-27T11:10:51.119Z,1031.31
2016-12-27T11:11:51.779Z,1031.33
2016-12-27T11:12:52.448Z,1031.27
2016-12-27T11:13:53.132Z,1031.37
2016-12-27T11:14:53.802Z,1031.28
2016-12-27T11:15:54.467Z,1031.26
2016-12-27T11:16:55.254Z,1031.27
2016-12-27T11:17:55.938Z,1031.32
2016-12-27T11:18:56.612Z,1031.18
2016-12-27T11:19:57.278Z,1031.35
2016-12-27T11:20:57.945Z,1031.31
2016-12-27T11:21:58.596Z,1031.32
2016-12-27T11:22:59.260Z,1031.38
2016-12-27T11:23:59.942Z,1031.41
2016-12-27T11:25:00.615Z,1031.42
2016-12-27T11:26:01.272Z,1031.41
2016-12-27T11:27:01.933Z,1031.46
2016-12-27T11:28:02.623Z,1031.42
2016-12-27T11:29:03.309Z,1031.36
2016-12-27T11:30:03.983Z,1031.42
2016-12-27T11:31:04.652Z,1031.42
2016-12-27T11:32:05.315Z,1031.5
2016-12-27T11:33:06.032Z,1031.44
2016-12-27T13:56:04.073Z,1033.55
2016-12-27T13:57:04.746Z,1033.5
2016-12-27T13:58:05.427Z,1033.62
2016-12-27T13:59:06.102Z,1033.57
2016-12-27T14:00:06.773Z,1033.52
2016-12-27T14:01:07.414Z,1033.67
2016-12-27T14:02:08.087Z,1033.63
2016-12-27T14:03:08.800Z,1033.65
2016-12-27T14:04:09.463Z,1033.7
2016-12-27T14:05:10.122Z,1033.7
2016-12-27T14:06:10.794Z,1033.69
2016-12-27T14:07:11.475Z,1033.7
2016-12-27T14:08:12.141Z,1033.76
2016-12-27T14:09:12.824Z,1033.73
2016-12-27T14:10:13.473Z,1033.79
2016-12-27T14:11:14.150Z,1033.8
2016-12-27T14:12:14.815Z,1033.85
2016-12-27T14:13:15.494Z,1033.86
2016-12-27T14:14:16.160Z,1033.83
2016-12-27T14:15:16.836Z,1033.87
2016-12-27T14:16:17.502Z,1033.94
2016-12-27T14:17:18.173Z,1033.94
2016-12-27T14:18:18.831Z,1033.96
2016-12-27T14:19:19.490Z,1034.06
2016-12-27T14:20:20.136Z,1034.03
2016-12-27T14:21:20.821Z,1034.1
2016-12-27T14:22:21.503Z,1034.07
2016-12-27T14:23:22.187Z,1034.14
2016-12-27T14:24:22.840Z,1034.13
2016-12-27T14:25:23.493Z,1034.05
2016-12-27T14:26:24.191Z,1034.1
2016-12-27T14:27:24.890Z,1034.21
2016-12-27T14:28:25.570Z,1034.21
2016-12-27T14:29:26.277Z,1034.19
2016-12-27T14:30:26.915Z,1034.24
2016-12-27T14:31:27.607Z,1034.2
2016-12-27T14:32:28.263Z,1034.22
2016-12-27T14:33:28.928Z,1034.3
2016-12-27T14:34:29.603Z,1034.24
2016-12-27T14:35:30.306Z,1034.27
2016-12-27T14:36:31.054Z,1034.29
2016-12-27T14:37:31.742Z,1034.29
2016-12-27T14:38:32.427Z,1034.29